TimeAKST,TemperatureF,Dew PointF,Humidity,Sea Level PressureIn,VisibilityMPH,Wind Direction,Wind SpeedMPH,Gust SpeedMPH,PrecipitationIn,Events,Conditions,WindDirDegrees,DateUTC
12:56 AM,-22.9,-29.9,70,30.24,-9999.0,Calm,Calm,-,0.00,Snow,Light Snow,0,2013-02-02 09:56:00
1:13 AM,-23.8,-29.2,76,30.22,-9999.0,Calm,Calm,-,0.00,Snow,Light Snow,0,2013-02-02 10:13:00
1:56 AM,-24.9,-31.9,70,30.22,-9999.0,Calm,Calm,-,0.00,Snow,Light Snow,0,2013-02-02 10:56:00
2:56 AM,-26.0,-33.0,69,30.22,-9999.0,Calm,Calm,-,0.00,Snow,Light Snow,0,2013-02-02 11:56:00
3:56 AM,-26.0,-33.0,69,30.18,-9999.0,Calm,Calm,-,0.00,Snow,Light Snow,0,2013-02-02 12:56:00
4:56 AM,-26.0,-31.9,73,30.16,-9999.0,Calm,Calm,-,0.00,Snow,Light Snow,0,2013-02-02 13:56:00
5:56 AM,-24.9,-31.0,73,30.12,-9999.0,Calm,Calm,-,0.00,Snow,Light Snow,0,2013-02-02 14:56:00
6:56 AM,-24.9,-31.9,70,30.11,-9999.0,Calm,Calm,-,0.00,Snow,Light Snow,0,2013-02-02 15:56:00
7:56 AM,-24.9,-31.0,73,30.09,-9999.0,Calm,Calm,-,0.00,Snow,Light Snow,0,2013-02-02 16:56:00
8:56 AM,-24.9,-31.0,73,30.06,-9999.0,Calm,Calm,-,0.00,Snow,Light Snow,0,2013-02-02 17:56:00
9:56 AM,-24.9,-31.0,73,30.04,-9999.0,Calm,Calm,-,0.00,Snow,Light Snow,0,2013-02-02 18:56:00
10:56 AM,-24.9,-31.0,73,30.02,-9999.0,Calm,Calm,-,0.00,Snow,Light Snow,0,2013-02-02 19:56:00
11:56 AM,-24.0,-29.9,74,30.01,-9999.0,Calm,Calm,-,0.00,Snow,Light Snow,0,2013-02-02 20:56:00
12:56 PM,-22.9,-28.8,74,30.01,-9999.0,Calm,Calm,-,0.00,Snow,Light Snow,0,2013-02-02 21:56:00
1:56 PM,-20.9,-27.9,70,30.00,-9999.0,Calm,Calm,-,0.00,Snow,Light Snow,0,2013-02-02 22:56:00
2:56 PM,-20.9,-26.9,74,29.99,-9999.0,Calm,Calm,-,0.00,Snow,Light Snow,0,2013-02-02 23:56:00
3:56 PM,-19.8,-26.0,73,29.96,-9999.0,Calm,Calm,-,0.00,Snow,Light Snow,0,2013-02-03 00:56:00
4:56 PM,-18.9,-24.9,74,29.92,-9999.0,Calm,Calm,-,0.00,Snow,Light Snow,0,2013-02-03 01:56:00
5:56 PM,-17.9,-24.0,74,29.92,-9999.0,Calm,Calm,-,0.00,Snow,Light Snow,0,2013-02-03 02:56:00
6:56 PM,-17.9,-24.0,74,29.91,-9999.0,Calm,Calm,-,0.00,Snow,Light Snow,0,2013-02-03 03:56:00
7:56 PM,-17.0,-22.9,74,29.91,-9999.0,Calm,Calm,-,0.00,,Overcast,0,2013-02-03 04:56:00
8:33 PM,-16.6,-23.8,70,29.89,0.2,ENE,28.8,34.5,0.00,Snow,Heavy Snow,70,2013-02-03 05:33:00
8:41 PM,-16.6,-23.8,70,29.89,0.2,ENE,27.6,39.1,0.00,,Overcast,60,2013-02-03 05:41:00
8:56 PM,-16.6,-23.8,70,29.89,0.5,ENE,26.5,32.2,N/A,,Overcast,70,2013-02-03 05:56:00
9:07 PM,-16.6,-23.8,70,29.88,0.2,ENE,27.6,38.0,0.00,Snow,Heavy Snow,60,2013-02-03 06:07:00
9:32 PM,-16.6,-22.0,76,29.88,0.5,Calm,Calm,-,0.00,Snow,Snow,0,2013-02-03 06:32:00
9:56 PM,-15.9,-22.0,74,29.91,0.5,Calm,Calm,-,0.00,Snow,Snow,0,2013-02-03 06:56:00
10:56 PM,-15.9,-20.9,78,29.90,0.5,Calm,Calm,-,0.00,Snow,Snow,0,2013-02-03 07:56:00
11:56 PM,-14.8,-20.2,77,29.86,0.2,Calm,Calm,-,N/A,Snow,Heavy Snow,0,2013-02-03 08:56:00